KWRL/WRL METAR and TAF weather

Enter ICAO airport designator
Station Type Date Time Source
KWRL METAR 2021/04/18 02:53 UTC NOAA

KWRL 180253Z AUTO 19007KT 10SM FEW120 07/M02 A3015 RMK AO2 SLP227 T00671022 55003


Station Type Date Time Source
KWRL Decoded METAR 2021/04/18 02:53 UTC NOAA

WORLAND MUNICIPAL AIRPORT, WY, United States (KWRL) 43-58N 107-57W 1271M
Apr 17, 2021 - 10:53 PM EDT / 2021.04.18 0253 UTC
Wind: from the S (190 degrees) at 8 MPH (7 KT):0
Visibility: 10 mile(s):0
Sky conditions: mostly clear
Temperature: 44.1 F (6.7 C)
Dew Point: 28.0 F (-2.2 C)
Relative Humidity: 52%
Pressure (altimeter): 30.15 in. Hg (1020 hPa)
Pressure tendency: 0.01 inches (0.3 hPa) lower than three hours ago
ob: KWRL 180253Z AUTO 19007KT 10SM FEW120 07/M02 A3015 RMK AO2 SLP227 T00671022 55003
cycle: 3

Station Type Date Time Source
KWRL TAF 2021/04/17 18:30 UTC NOAA

TAF KWRL 171728Z 1718/1818 34007KT P6SM SKC
FM180200 15005KT P6SM SCT100

Example: see airport list